createdAt,value
2018-09-19T00:00:02.110Z,6.75
2018-09-19T00:00:41.102Z,6.03
2018-09-19T00:01:19.832Z,5.30
2018-09-19T00:01:58.415Z,6.20
2018-09-19T00:02:37.649Z,5.43
2018-09-19T00:03:16.673Z,6.17
2018-09-19T00:03:55.406Z,6.35
2018-09-19T00:04:33.957Z,6.97
2018-09-19T00:05:12.486Z,5.90
2018-09-19T00:05:51.048Z,6.17
2018-09-19T00:06:29.761Z,5.67
2018-09-19T00:07:08.299Z,5.85
2018-09-19T00:07:47.402Z,5.67
2018-09-19T00:08:26.007Z,6.85
2018-09-19T00:09:05.145Z,5.53
2018-09-19T00:09:43.788Z,6.00
2018-09-19T00:10:22.878Z,5.53
2018-09-19T00:11:01.430Z,6.05
2018-09-19T00:11:40.512Z,5.87
2018-09-19T00:12:19.820Z,5.95
2018-09-19T00:12:58.381Z,5.60
2018-09-19T00:13:36.945Z,4.97
2018-09-19T00:14:15.487Z,6.12
2018-09-19T00:14:54.039Z,5.47
2018-09-19T00:15:32.511Z,5.67
2018-09-19T00:16:15.111Z,5.80
2018-09-19T00:16:53.228Z,5.50
2018-09-19T00:17:31.357Z,6.70
2018-09-19T00:18:09.531Z,5.33
2018-09-19T00:18:47.624Z,5.92
2018-09-19T00:19:26.692Z,5.78
2018-09-19T00:20:04.631Z,4.97
2018-09-19T00:20:43.269Z,5.60
2018-09-19T00:21:21.273Z,4.87
2018-09-19T00:21:59.166Z,6.85
2018-09-19T00:22:37.184Z,6.47
2018-09-19T00:23:15.064Z,5.70
2018-09-19T00:23:53.114Z,5.55
2018-09-19T00:24:31.665Z,6.00
2018-09-19T00:25:11.421Z,6.55
2018-09-19T00:25:49.334Z,6.95
2018-09-19T00:26:27.412Z,6.20
2018-09-19T00:27:05.481Z,7.00
2018-09-19T00:27:43.386Z,6.72
2018-09-19T00:28:21.511Z,6.75
2018-09-19T00:28:59.546Z,6.87
2018-09-19T00:29:38.646Z,7.60
2018-09-19T00:30:16.609Z,7.15
2018-09-19T00:30:54.567Z,7.12
2018-09-19T00:31:32.693Z,7.17
2018-09-19T00:32:10.725Z,7.25
2018-09-19T00:32:48.721Z,7.15
2018-09-19T00:33:26.636Z,7.03
2018-09-19T00:34:48.203Z,7.33
2018-09-19T00:35:26.141Z,7.22
2018-09-19T00:36:04.207Z,6.97
2018-09-19T00:36:42.231Z,8.43
2018-09-19T00:37:21.043Z,7.17
2018-09-19T00:37:59.474Z,8.50
2018-09-19T00:38:37.555Z,8.47
2018-09-19T00:39:15.684Z,8.60
2018-09-19T00:39:53.737Z,8.90
2018-09-19T00:40:31.700Z,8.10
2018-09-19T00:41:09.892Z,8.23
2018-09-19T00:41:47.961Z,9.10
2018-09-19T00:42:26.070Z,9.73
2018-09-19T00:43:04.096Z,9.65
2018-09-19T00:43:42.187Z,9.50
2018-09-19T00:44:20.253Z,9.03
2018-09-19T00:44:58.187Z,9.55
2018-09-19T00:45:36.291Z,10.10
2018-09-19T00:46:15.445Z,10.90
2018-09-19T00:46:54.254Z,9.70
2018-09-19T00:47:32.246Z,9.00
2018-09-19T00:48:10.393Z,10.30
2018-09-19T00:48:48.484Z,9.33
2018-09-19T00:49:26.611Z,9.40
2018-09-19T00:50:04.604Z,10.20
2018-09-19T00:50:42.862Z,9.58
2018-09-19T00:51:21.065Z,8.95
2018-09-19T00:51:59.111Z,10.40
2018-09-19T00:52:37.083Z,11.18
2018-09-19T00:53:15.019Z,11.00
2018-09-19T00:53:52.965Z,11.48
2018-09-19T00:54:31.096Z,9.95
2018-09-19T00:55:09.191Z,10.90
2018-09-19T00:55:47.163Z,12.07
2018-09-19T00:56:25.038Z,11.30
2018-09-19T00:57:03.112Z,10.85
2018-09-19T00:57:41.270Z,12.55
2018-09-19T00:58:19.193Z,12.03
2018-09-19T00:58:57.177Z,13.18
2018-09-19T00:59:35.922Z,12.33
2018-09-19T01:00:14.121Z,12.53
2018-09-19T01:00:52.035Z,11.97
2018-09-19T01:01:29.936Z,12.28
2018-09-19T01:02:08.046Z,14.05
2018-09-19T01:02:46.064Z,13.98
2018-09-19T01:03:24.117Z,14.38
2018-09-19T01:04:02.029Z,14.68
2018-09-19T01:04:40.753Z,13.83
2018-09-19T01:05:18.906Z,14.80
2018-09-19T01:05:57.064Z,14.07
2018-09-19T01:06:35.146Z,14.70
2018-09-19T01:07:13.095Z,13.45
2018-09-19T01:07:51.111Z,14.90
2018-09-19T01:08:29.362Z,13.80
2018-09-19T01:09:08.226Z,15.68
2018-09-19T01:09:46.193Z,16.90
2018-09-19T01:10:24.219Z,16.12
2018-09-19T01:11:02.174Z,16.20
2018-09-19T01:11:40.524Z,18.05
2018-09-19T01:12:18.535Z,17.10
2018-09-19T01:12:56.677Z,16.70
2018-09-19T01:13:34.600Z,17.95
2018-09-19T01:14:12.629Z,19.12
2018-09-19T01:14:50.781Z,17.07
2018-09-19T01:15:29.943Z,17.40
2018-09-19T01:16:07.981Z,18.15
2018-09-19T01:16:46.197Z,18.95
2018-09-19T01:17:24.203Z,18.98
2018-09-19T01:18:03.079Z,18.20
2018-09-19T01:18:41.953Z,16.37
2018-09-19T01:19:19.929Z,17.12
2018-09-19T01:19:58.014Z,16.42
2018-09-19T01:20:36.197Z,17.07
2018-09-19T01:21:14.594Z,18.07
2018-09-19T01:21:53.600Z,18.32
2018-09-19T01:22:31.673Z,17.85
2018-09-19T01:23:09.668Z,17.80
2018-09-19T01:23:47.590Z,18.23
2018-09-19T01:24:25.602Z,16.77
2018-09-19T01:25:03.632Z,16.95
2018-09-19T01:25:42.205Z,17.37
2018-09-19T01:26:20.385Z,16.00
2018-09-19T01:26:58.326Z,16.80
2018-09-19T01:27:36.376Z,16.40
2018-09-19T01:28:14.384Z,18.40
2018-09-19T01:28:52.273Z,16.60
2018-09-19T01:29:30.232Z,16.45
2018-09-19T01:30:09.325Z,17.80
2018-09-19T01:30:47.349Z,18.60
2018-09-19T01:31:26.296Z,17.90
2018-09-19T01:32:04.325Z,16.67
2018-09-19T01:32:42.357Z,18.80
2018-09-19T01:33:20.917Z,17.42
2018-09-19T01:33:59.081Z,17.25
2018-09-19T01:34:36.990Z,16.83
2018-09-19T01:35:14.905Z,17.23
2018-09-19T01:35:53.051Z,17.98
2018-09-19T01:36:31.028Z,16.97
2018-09-19T01:37:09.138Z,17.87
2018-09-19T01:37:47.144Z,19.62
2018-09-19T01:38:26.267Z,18.30
2018-09-19T01:39:05.433Z,19.32
2018-09-19T01:39:43.521Z,20.60
2018-09-19T01:40:22.379Z,18.82
2018-09-19T01:41:00.423Z,19.40
2018-09-19T01:41:38.512Z,19.40
2018-09-19T01:42:16.469Z,19.42
2018-09-19T01:42:54.374Z,19.90
2018-09-19T01:43:32.252Z,17.70
2018-09-19T01:44:10.309Z,20.02
2018-09-19T01:44:48.280Z,21.80
2018-09-19T01:45:26.252Z,18.45
2018-09-19T01:46:04.257Z,19.05
2018-09-19T01:46:42.182Z,17.53
2018-09-19T01:47:20.085Z,19.80
2018-09-19T01:47:58.990Z,19.90
2018-09-19T01:48:37.205Z,18.37
2018-09-19T01:49:16.408Z,17.85
2018-09-19T01:49:54.475Z,17.73
2018-09-19T01:50:32.502Z,17.75
2018-09-19T01:51:10.596Z,15.90
2018-09-19T01:51:49.429Z,17.62
2018-09-19T01:52:27.469Z,17.70
2018-09-19T01:53:05.451Z,17.92
2018-09-19T01:53:43.451Z,17.82
2018-09-19T01:54:21.418Z,19.60
2018-09-19T01:55:00.286Z,16.40
2018-09-19T01:55:38.210Z,17.80
2018-09-19T01:56:16.843Z,18.32
2018-09-19T01:56:54.939Z,17.17
2018-09-19T01:57:32.864Z,17.67
2018-09-19T01:58:10.857Z,16.85
2018-09-19T01:58:48.813Z,14.38
2018-09-19T01:59:26.864Z,12.60
2018-09-19T02:00:04.824Z,14.50
2018-09-19T02:00:42.862Z,14.63
2018-09-19T02:01:20.923Z,14.18
2018-09-19T02:01:58.934Z,14.98
2018-09-19T02:02:37.033Z,13.47
2018-09-19T02:03:15.155Z,14.38
2018-09-19T02:03:53.292Z,11.55
2018-09-19T02:04:31.599Z,13.50
2018-09-19T02:05:10.930Z,15.28
2018-09-19T02:05:50.217Z,13.05
2018-09-19T02:06:28.932Z,12.90
2018-09-19T02:07:07.179Z,13.83
2018-09-19T02:07:45.311Z,12.43
2018-09-19T02:08:23.514Z,13.13
2018-09-19T02:09:02.020Z,13.32
2018-09-19T02:09:40.062Z,11.45
2018-09-19T02:10:18.078Z,12.10
2018-09-19T02:10:56.150Z,12.80
2018-09-19T02:11:34.221Z,11.40
2018-09-19T02:12:12.194Z,12.33
2018-09-19T02:12:51.221Z,12.45
2018-09-19T02:13:29.171Z,12.07
2018-09-19T02:14:07.105Z,13.00
2018-09-19T02:14:45.225Z,12.30
2018-09-19T02:15:23.295Z,11.20
2018-09-19T02:16:01.285Z,10.50
2018-09-19T02:16:39.633Z,10.90
2018-09-19T02:17:17.602Z,9.40
2018-09-19T02:17:55.784Z,10.60
2018-09-19T02:18:33.817Z,9.43
2018-09-19T02:20:00.278Z,8.13
2018-09-19T02:20:39.112Z,8.53
2018-09-19T02:21:17.284Z,9.10
2018-09-19T02:21:55.377Z,8.33
2018-09-19T02:22:33.395Z,9.55
2018-09-19T02:23:11.533Z,8.85
2018-09-19T02:23:49.510Z,9.40
2018-09-19T02:24:27.576Z,9.45
2018-09-19T02:25:05.631Z,9.65
2018-09-19T02:25:43.506Z,10.00
2018-09-19T02:26:21.571Z,10.45
2018-09-19T02:27:00.883Z,11.45
2018-09-19T02:27:38.920Z,11.40
2018-09-19T02:28:17.117Z,11.00
2018-09-19T02:28:55.089Z,10.80
2018-09-19T02:29:33.242Z,10.25
2018-09-19T02:30:11.357Z,10.53
2018-09-19T02:30:50.236Z,11.60
2018-09-19T02:31:28.283Z,10.95
2018-09-19T02:32:06.293Z,11.10
2018-09-19T02:32:44.212Z,11.20
2018-09-19T02:33:22.220Z,9.80
2018-09-19T02:34:00.209Z,9.43
2018-09-19T02:34:38.198Z,9.30
2018-09-19T02:35:16.295Z,9.13
2018-09-19T02:35:54.181Z,9.30
2018-09-19T02:36:32.282Z,10.53
2018-09-19T02:37:10.121Z,9.98
2018-09-19T02:37:48.181Z,8.53
2018-09-19T02:38:26.238Z,9.30
2018-09-19T02:39:04.905Z,9.38
2018-09-19T02:39:43.054Z,8.10
2018-09-19T02:40:21.291Z,8.23
2018-09-19T02:40:59.246Z,8.05
2018-09-19T02:41:37.269Z,9.10
2018-09-19T02:42:15.369Z,7.90
2018-09-19T02:42:53.481Z,9.85
2018-09-19T02:43:32.131Z,7.92
2018-09-19T02:44:10.257Z,8.53
2018-09-19T02:44:48.270Z,8.40
2018-09-19T02:45:26.224Z,8.33
2018-09-19T02:46:04.243Z,7.95
2018-09-19T02:46:42.283Z,7.53
2018-09-19T02:47:21.527Z,8.40
2018-09-19T02:47:59.506Z,7.78
2018-09-19T02:48:37.589Z,6.77
2018-09-19T02:49:15.529Z,8.38
2018-09-19T02:49:54.327Z,7.28
2018-09-19T02:50:32.174Z,8.08
2018-09-19T02:51:10.033Z,7.35
2018-09-19T02:51:48.077Z,7.40
2018-09-19T02:52:26.163Z,7.08
2018-09-19T02:53:05.281Z,7.40
2018-09-19T02:53:43.220Z,8.60
2018-09-19T02:54:21.167Z,7.67
2018-09-19T02:55:00.207Z,8.20
2018-09-19T02:55:38.329Z,7.35
2018-09-19T02:56:16.826Z,7.25
2018-09-19T02:56:54.870Z,7.53
2018-09-19T02:57:32.882Z,8.20
2018-09-19T02:58:10.819Z,7.90
2018-09-19T02:58:49.000Z,7.83
2018-09-19T02:59:26.929Z,7.03
2018-09-19T03:00:04.923Z,6.60
2018-09-19T03:00:42.905Z,6.87
2018-09-19T03:01:20.987Z,7.78
2018-09-19T03:01:59.070Z,7.00
2018-09-19T03:02:37.058Z,6.47
2018-09-19T03:03:15.032Z,6.85
2018-09-19T03:03:53.071Z,6.40
2018-09-19T03:04:31.130Z,6.85
2018-09-19T03:05:09.104Z,6.40
2018-09-19T03:05:47.221Z,7.20
2018-09-19T03:06:25.157Z,5.47
2018-09-19T03:07:03.207Z,6.35
2018-09-19T03:07:41.200Z,7.20
2018-09-19T03:08:19.195Z,7.40
2018-09-19T03:08:57.247Z,6.72
2018-09-19T03:09:35.247Z,6.80
2018-09-19T03:10:13.661Z,6.40
2018-09-19T03:10:51.824Z,6.25
2018-09-19T03:11:29.752Z,6.37
2018-09-19T03:12:07.693Z,6.30
2018-09-19T03:12:45.726Z,6.37
2018-09-19T03:13:23.654Z,6.28
2018-09-19T03:14:02.290Z,6.53
2018-09-19T03:14:40.157Z,6.37
2018-09-19T03:15:18.146Z,6.20
2018-09-19T03:15:56.865Z,6.10
2018-09-19T03:16:35.648Z,5.70
2018-09-19T03:17:13.678Z,6.15
2018-09-19T03:17:51.815Z,6.15
2018-09-19T03:18:30.028Z,6.78
2018-09-19T03:19:08.053Z,6.10
2018-09-19T03:19:46.157Z,4.78
2018-09-19T03:20:24.248Z,5.30
2018-09-19T03:21:02.296Z,3.92
2018-09-19T03:21:40.233Z,3.95
2018-09-19T03:22:18.300Z,4.28
2018-09-19T03:22:56.440Z,4.25
2018-09-19T03:23:34.442Z,4.70
2018-09-19T03:24:12.418Z,4.95
2018-09-19T03:24:50.429Z,4.60
2018-09-19T03:25:28.469Z,4.40
2018-09-19T03:26:06.522Z,4.30
2018-09-19T03:26:44.557Z,4.40
2018-09-19T03:27:23.417Z,5.53
2018-09-19T03:28:01.837Z,4.70
2018-09-19T03:28:39.857Z,4.67
2018-09-19T03:29:17.800Z,4.80
2018-09-19T03:29:56.675Z,3.98
2018-09-19T03:30:34.672Z,4.15
2018-09-19T03:31:12.724Z,3.52
2018-09-19T03:31:52.828Z,3.33
2018-09-19T03:32:30.787Z,3.75
2018-09-19T03:33:08.783Z,3.05
2018-09-19T03:33:46.683Z,3.30
2018-09-19T03:34:24.704Z,3.65
2018-09-19T03:35:02.714Z,3.80
2018-09-19T03:35:43.026Z,3.40
2018-09-19T03:36:21.136Z,3.75
2018-09-19T03:36:59.073Z,4.70
2018-09-19T03:37:37.131Z,3.42
2018-09-19T03:38:15.177Z,4.80
2018-09-19T03:38:53.111Z,4.47
2018-09-19T03:39:31.209Z,5.35
2018-09-19T03:40:09.354Z,4.28
2018-09-19T03:40:47.359Z,4.40
2018-09-19T03:41:25.388Z,4.20
2018-09-19T03:42:03.404Z,4.30
2018-09-19T03:42:41.431Z,3.97
2018-09-19T03:43:19.504Z,4.15
2018-09-19T03:43:57.483Z,4.40
2018-09-19T03:44:35.405Z,4.40
2018-09-19T03:45:13.597Z,4.20
2018-09-19T03:45:51.536Z,5.40
2018-09-19T03:46:29.499Z,4.03
2018-09-19T03:47:07.491Z,4.58
2018-09-19T03:47:47.202Z,4.00
2018-09-19T03:48:25.266Z,4.80
2018-09-19T03:49:03.363Z,4.70
2018-09-19T03:49:41.477Z,5.17
2018-09-19T03:50:19.890Z,4.92
2018-09-19T03:50:57.849Z,4.70
2018-09-19T03:51:35.903Z,4.67
2018-09-19T03:52:13.869Z,4.80
2018-09-19T03:52:51.894Z,5.15
2018-09-19T03:53:29.946Z,4.60
2018-09-19T03:54:08.001Z,5.08
2018-09-19T03:54:46.026Z,4.95
2018-09-19T03:55:24.114Z,4.67
2018-09-19T03:56:02.192Z,5.28
2018-09-19T03:56:40.119Z,5.10
2018-09-19T03:57:18.111Z,5.30
2018-09-19T03:57:57.004Z,4.83
2018-09-19T03:58:35.071Z,4.90
2018-09-19T03:59:13.124Z,5.15
2018-09-19T03:59:51.106Z,5.62
2018-09-19T04:00:29.110Z,5.37
2018-09-19T04:01:07.172Z,5.40
2018-09-19T04:01:45.351Z,4.90
2018-09-19T04:02:23.360Z,5.10
2018-09-19T04:03:01.258Z,5.12
2018-09-19T04:03:39.239Z,5.78
2018-09-19T04:04:17.330Z,5.15
2018-09-19T04:04:55.338Z,5.83
2018-09-19T04:05:33.255Z,5.50
2018-09-19T04:07:05.150Z,5.75
2018-09-19T04:08:40.401Z,5.83
2018-09-19T04:09:18.905Z,5.65
2018-09-19T04:09:56.999Z,7.00
2018-09-19T04:10:36.279Z,6.10
2018-09-19T04:11:14.396Z,6.58
2018-09-19T04:11:52.468Z,6.92
2018-09-19T04:12:30.435Z,6.90
2018-09-19T04:13:08.321Z,6.78
2018-09-19T04:13:46.366Z,7.25
2018-09-19T04:14:24.380Z,6.85
2018-09-19T04:15:02.513Z,7.20
2018-09-19T04:15:40.525Z,7.22
2018-09-19T04:16:18.525Z,6.62
2018-09-19T04:16:56.666Z,7.17
2018-09-19T04:17:34.546Z,7.22
2018-09-19T04:18:12.584Z,6.75
2018-09-19T04:18:50.504Z,6.65
2018-09-19T04:19:28.453Z,6.90
2018-09-19T04:20:10.354Z,7.28
2018-09-19T04:20:48.284Z,7.08
2018-09-19T04:21:26.300Z,6.92
2018-09-19T04:22:04.370Z,7.35
2018-09-19T04:22:42.477Z,7.12
2018-09-19T04:23:21.443Z,7.35
2018-09-19T04:23:59.536Z,7.25
2018-09-19T04:24:37.621Z,7.30
2018-09-19T04:25:15.719Z,7.12
2018-09-19T04:25:53.924Z,7.53
2018-09-19T04:26:31.872Z,7.45
2018-09-19T04:27:09.913Z,7.50
2018-09-19T04:27:47.874Z,8.20
2018-09-19T04:28:25.937Z,8.65
2018-09-19T04:30:00.058Z,8.08
2018-09-19T04:30:38.030Z,7.80
2018-09-19T04:31:15.916Z,9.40
2018-09-19T04:31:53.878Z,8.83
2018-09-19T04:32:32.818Z,8.87
2018-09-19T04:33:10.925Z,9.15
2018-09-19T04:33:48.788Z,8.20
2018-09-19T04:34:26.802Z,8.35
2018-09-19T04:35:04.750Z,8.20
2018-09-19T04:35:42.962Z,8.80
2018-09-19T04:36:20.999Z,7.95
2018-09-19T04:36:59.105Z,7.80
2018-09-19T04:37:37.117Z,8.50
2018-09-19T04:38:15.989Z,8.38
2018-09-19T04:38:53.981Z,8.25
2018-09-19T04:39:31.970Z,8.38
2018-09-19T04:40:10.040Z,9.10
2018-09-19T04:40:48.094Z,8.30
2018-09-19T04:41:26.045Z,8.00
2018-09-19T04:42:04.099Z,7.70
2018-09-19T04:42:42.190Z,8.60
2018-09-19T04:43:20.246Z,8.63
2018-09-19T04:43:58.276Z,8.38
2018-09-19T04:44:36.330Z,8.30
2018-09-19T04:45:14.419Z,9.38
2018-09-19T04:45:52.549Z,8.60
2018-09-19T04:46:30.660Z,9.10
2018-09-19T04:47:08.843Z,8.27
2018-09-19T04:47:46.847Z,9.15
2018-09-19T04:48:24.938Z,9.10
2018-09-19T04:49:02.948Z,8.95
2018-09-19T04:49:40.972Z,8.35
2018-09-19T04:50:18.909Z,8.27
2018-09-19T04:50:56.832Z,8.25
2018-09-19T04:51:35.032Z,9.57
2018-09-19T04:52:13.194Z,7.97
2018-09-19T04:52:51.166Z,8.87
2018-09-19T04:53:29.300Z,8.50
2018-09-19T04:54:07.278Z,7.97
2018-09-19T04:54:45.308Z,8.00
2018-09-19T04:55:23.350Z,8.70
2018-09-19T04:56:01.549Z,7.97
2018-09-19T04:56:40.077Z,7.60
2018-09-19T04:57:18.043Z,8.20
2018-09-19T04:57:56.055Z,7.97
2018-09-19T04:58:34.084Z,8.53
2018-09-19T04:59:12.040Z,8.33
2018-09-19T04:59:50.104Z,8.15
2018-09-19T05:00:28.015Z,8.58
2018-09-19T05:01:05.966Z,8.73
2018-09-19T05:01:43.997Z,8.67
2018-09-19T05:02:22.024Z,8.33
2018-09-19T05:03:00.124Z,8.87
2018-09-19T05:03:38.648Z,8.70
2018-09-19T05:04:16.748Z,8.53
2018-09-19T05:04:54.681Z,8.78
2018-09-19T05:05:32.761Z,9.27
2018-09-19T05:06:10.671Z,9.10
2018-09-19T05:06:48.644Z,8.93
2018-09-19T05:07:26.802Z,9.20
2018-09-19T05:08:04.968Z,8.43
2018-09-19T05:08:42.930Z,8.63
2018-09-19T05:09:21.757Z,9.00
2018-09-19T05:09:59.733Z,8.87
2018-09-19T05:10:37.815Z,8.60
2018-09-19T05:11:15.801Z,9.53
2018-09-19T05:11:53.903Z,10.37
2018-09-19T05:12:31.838Z,9.50
2018-09-19T05:13:10.077Z,10.00
2018-09-19T05:13:48.121Z,9.13
2018-09-19T05:14:27.044Z,9.33
2018-09-19T05:15:05.104Z,8.87
2018-09-19T05:15:43.760Z,9.97
2018-09-19T05:16:21.983Z,9.60
2018-09-19T05:17:00.109Z,11.03
2018-09-19T05:17:38.199Z,10.10
2018-09-19T05:18:16.816Z,10.40
2018-09-19T05:18:54.840Z,9.50
2018-09-19T05:19:32.825Z,11.30
2018-09-19T05:20:10.797Z,9.57
2018-09-19T05:20:48.797Z,10.00
2018-09-19T05:22:10.477Z,9.13
2018-09-19T05:22:48.508Z,8.70
2018-09-19T05:23:26.687Z,8.35
2018-09-19T05:24:04.658Z,8.77
2018-09-19T05:24:42.655Z,8.50
2018-09-19T05:25:20.710Z,8.00
2018-09-19T05:25:58.657Z,8.50
2018-09-19T05:26:36.581Z,8.40
2018-09-19T05:27:15.795Z,8.68
2018-09-19T05:27:53.821Z,7.53
2018-09-19T05:28:31.870Z,8.07
2018-09-19T05:29:09.979Z,7.47
2018-09-19T05:29:48.394Z,8.10
2018-09-19T05:30:26.823Z,7.57
2018-09-19T05:31:04.852Z,8.20
2018-09-19T05:31:42.899Z,6.80
2018-09-19T05:32:20.927Z,8.60
2018-09-19T05:32:58.993Z,8.80
2018-09-19T05:33:36.948Z,8.47
2018-09-19T05:34:14.889Z,8.70
2018-09-19T05:34:52.838Z,10.00
2018-09-19T05:35:30.895Z,10.70
2018-09-19T05:36:09.093Z,10.30
2018-09-19T05:36:48.160Z,9.67
2018-09-19T05:37:26.155Z,10.20
2018-09-19T05:38:04.205Z,9.90
2018-09-19T05:38:42.118Z,10.43
2018-09-19T05:39:20.358Z,10.40
2018-09-19T05:39:59.512Z,9.87
2018-09-19T05:40:37.354Z,10.10
2018-09-19T05:41:15.304Z,12.23
2018-09-19T05:41:53.388Z,9.67
2018-09-19T05:42:31.298Z,9.93
2018-09-19T05:43:09.262Z,9.90
2018-09-19T05:43:48.915Z,11.60
2018-09-19T05:44:26.876Z,10.53
2018-09-19T05:45:04.939Z,10.80
2018-09-19T05:45:42.856Z,9.33
2018-09-19T05:46:21.017Z,9.03
2018-09-19T05:46:59.152Z,9.00
2018-09-19T05:47:37.236Z,9.23
2018-09-19T05:48:15.305Z,10.27
2018-09-19T05:48:53.492Z,9.23
2018-09-19T05:49:31.457Z,9.80
2018-09-19T05:50:09.486Z,8.60
2018-09-19T05:50:47.466Z,9.97
2018-09-19T05:51:25.471Z,8.50
2018-09-19T05:52:04.493Z,8.43
2018-09-19T05:52:43.788Z,8.03
2018-09-19T05:53:21.723Z,8.20
2018-09-19T05:53:59.707Z,7.50
2018-09-19T05:54:37.789Z,8.23
2018-09-19T05:55:16.841Z,7.20
2018-09-19T05:55:54.941Z,7.90
2018-09-19T05:56:37.581Z,7.97
2018-09-19T05:57:15.489Z,8.00
2018-09-19T05:57:53.518Z,6.77
2018-09-19T05:58:32.576Z,6.97
2018-09-19T05:59:10.534Z,7.10
2018-09-19T05:59:48.687Z,6.77
2018-09-19T06:00:26.767Z,7.60
2018-09-19T06:01:05.358Z,7.70
2018-09-19T06:01:43.299Z,7.50
2018-09-19T06:02:21.261Z,7.40
2018-09-19T06:02:59.369Z,6.90
2018-09-19T06:03:38.240Z,6.77
2018-09-19T06:04:17.875Z,7.90
2018-09-19T06:04:59.988Z,8.07
2018-09-19T06:05:38.516Z,7.60
2018-09-19T06:06:16.510Z,8.20
2018-09-19T06:06:54.486Z,8.63
2018-09-19T06:07:32.568Z,7.83
2018-09-19T06:08:10.622Z,7.47
2018-09-19T06:08:48.766Z,7.87
2018-09-19T06:09:27.897Z,8.47
2018-09-19T06:10:06.468Z,8.30
2018-09-19T06:10:44.511Z,8.60
2018-09-19T06:11:22.682Z,9.43
2018-09-19T06:12:01.647Z,9.50
2018-09-19T06:12:39.735Z,8.73
2018-09-19T06:13:17.673Z,9.20
2018-09-19T06:14:00.725Z,8.97
2018-09-19T06:14:38.753Z,8.33
2018-09-19T06:15:17.515Z,9.10
2018-09-19T06:15:55.625Z,8.40
2018-09-19T06:16:33.656Z,9.10
2018-09-19T06:17:11.622Z,8.40
2018-09-19T06:17:49.555Z,8.60
2018-09-19T06:18:28.166Z,8.53
2018-09-19T06:19:06.314Z,8.70
2018-09-19T06:19:44.260Z,9.83
2018-09-19T06:20:23.174Z,7.93
2018-09-19T06:21:01.365Z,8.60
2018-09-19T06:21:39.267Z,8.37
2018-09-19T06:22:18.021Z,9.03
2018-09-19T06:22:56.322Z,8.10
2018-09-19T06:23:34.229Z,9.50
2018-09-19T06:24:12.409Z,8.33
2018-09-19T06:24:50.322Z,8.20
2018-09-19T06:25:28.363Z,8.03
2018-09-19T06:26:06.390Z,8.80
2018-09-19T06:26:44.458Z,8.50
2018-09-19T06:27:22.392Z,9.23
2018-09-19T06:28:00.474Z,8.80
2018-09-19T06:28:38.569Z,8.30
2018-09-19T06:29:16.578Z,8.40
2018-09-19T06:29:54.545Z,8.93
2018-09-19T06:30:32.667Z,8.27
2018-09-19T06:31:12.412Z,7.73
2018-09-19T06:31:51.125Z,6.80
2018-09-19T06:32:29.098Z,8.20
2018-09-19T06:33:07.252Z,8.27
2018-09-19T06:33:45.411Z,8.23
2018-09-19T06:34:23.551Z,8.40
2018-09-19T06:35:01.613Z,7.43
2018-09-19T06:35:40.395Z,7.60
2018-09-19T06:36:18.370Z,8.37
2018-09-19T06:36:56.423Z,7.80
2018-09-19T06:37:34.580Z,8.13
2018-09-19T06:38:12.615Z,8.27
2018-09-19T06:38:50.641Z,8.10
2018-09-19T06:39:28.533Z,7.13
2018-09-19T06:40:07.949Z,7.80
2018-09-19T06:40:46.068Z,7.50
2018-09-19T06:41:24.164Z,7.23
2018-09-19T06:42:02.186Z,7.47
2018-09-19T06:42:40.416Z,7.00
2018-09-19T06:43:18.436Z,7.00
2018-09-19T06:43:57.433Z,7.20
2018-09-19T06:44:35.910Z,7.20
2018-09-19T06:45:13.926Z,7.23
2018-09-19T06:45:51.988Z,7.30
2018-09-19T06:46:29.979Z,7.20
2018-09-19T06:47:08.003Z,7.40
2018-09-19T06:47:46.063Z,7.47
2018-09-19T06:48:24.146Z,7.37
2018-09-19T06:49:02.283Z,6.57
2018-09-19T06:49:40.338Z,6.70
2018-09-19T06:50:18.259Z,7.33
2018-09-19T06:50:56.204Z,7.57
2018-09-19T06:51:34.427Z,7.42
2018-09-19T06:52:12.571Z,7.42
2018-09-19T06:52:50.738Z,6.80
2018-09-19T06:53:28.987Z,7.10
2018-09-19T06:54:07.019Z,7.10
2018-09-19T06:54:44.971Z,6.40
2018-09-19T06:55:23.052Z,6.70
2018-09-19T06:56:01.021Z,6.27
2018-09-19T06:56:39.138Z,6.30
2018-09-19T06:57:18.017Z,6.43
2018-09-19T06:57:56.159Z,6.50
2018-09-19T06:58:34.221Z,6.63
2018-09-19T06:59:13.136Z,6.80
2018-09-19T06:59:51.355Z,6.60
2018-09-19T07:00:29.473Z,6.30
2018-09-19T07:01:08.558Z,6.17
2018-09-19T07:01:47.964Z,6.80
2018-09-19T07:02:26.838Z,5.97
2018-09-19T07:03:04.945Z,5.30
2018-09-19T07:03:42.806Z,6.13
2018-09-19T07:04:20.826Z,7.20
2018-09-19T07:04:58.892Z,6.60
2018-09-19T07:05:36.858Z,6.63
2018-09-19T07:06:14.961Z,5.57
2018-09-19T07:06:53.009Z,5.80
2018-09-19T07:07:31.068Z,6.40
2018-09-19T07:08:09.084Z,5.80
2018-09-19T07:08:47.196Z,5.63
2018-09-19T07:09:26.258Z,5.30
2018-09-19T07:10:04.553Z,6.07
2018-09-19T07:10:42.657Z,5.17
2018-09-19T07:11:20.765Z,5.97
2018-09-19T07:11:58.887Z,5.37
2018-09-19T07:12:36.846Z,5.67
2018-09-19T07:13:14.761Z,6.70
2018-09-19T07:13:52.959Z,5.27
2018-09-19T07:14:31.573Z,6.50
2018-09-19T07:15:09.861Z,5.43
2018-09-19T07:15:47.833Z,5.40
2018-09-19T07:16:25.742Z,6.17
2018-09-19T07:17:03.629Z,5.07
2018-09-19T07:17:41.563Z,5.57
2018-09-19T07:18:19.680Z,5.90
2018-09-19T07:18:58.032Z,6.03
2018-09-19T07:19:36.123Z,5.50
2018-09-19T07:20:15.062Z,5.60
2018-09-19T07:20:53.132Z,5.70
2018-09-19T07:21:32.031Z,6.50
2018-09-19T07:22:10.771Z,5.60
2018-09-19T07:22:48.848Z,5.83
2018-09-19T07:23:26.704Z,5.43
2018-09-19T07:24:04.648Z,5.00
2018-09-19T07:24:42.624Z,5.60
2018-09-19T07:25:20.724Z,5.60
2018-09-19T07:25:58.707Z,5.20
2018-09-19T07:26:36.774Z,4.50
2018-09-19T07:27:14.801Z,5.23
2018-09-19T07:27:52.653Z,5.20
2018-09-19T07:28:31.631Z,5.57
2018-09-19T07:29:09.778Z,5.20
2018-09-19T07:29:47.712Z,5.80
2018-09-19T07:30:25.753Z,4.83
2018-09-19T07:31:03.803Z,5.83
2018-09-19T07:31:41.993Z,5.70
2018-09-19T07:32:20.029Z,5.40
2018-09-19T07:32:58.130Z,5.17
2018-09-19T07:33:36.312Z,5.20
2018-09-19T07:34:14.342Z,4.97
2018-09-19T07:34:52.287Z,5.80
2018-09-19T07:35:30.512Z,4.77
2018-09-19T07:36:09.319Z,5.00
2018-09-19T07:36:49.161Z,5.00
2018-09-19T07:37:27.113Z,4.63
2018-09-19T07:38:05.147Z,5.80
2018-09-19T07:38:43.204Z,6.00
2018-09-19T07:39:21.299Z,5.00
2018-09-19T07:39:59.441Z,4.83
2018-09-19T07:40:37.940Z,4.93
2018-09-19T07:41:16.241Z,5.92
2018-09-19T07:41:54.280Z,5.30
2018-09-19T07:42:32.276Z,5.05
2018-09-19T07:43:11.449Z,4.90
2018-09-19T07:43:49.407Z,5.00
2018-09-19T07:44:27.574Z,5.10
2018-09-19T07:45:05.878Z,5.27
2018-09-19T07:45:44.008Z,5.03
2018-09-19T07:46:22.215Z,5.70
2018-09-19T07:47:00.278Z,5.62
2018-09-19T07:47:38.449Z,5.17
2018-09-19T07:48:16.888Z,5.30
2018-09-19T07:48:54.950Z,4.92
2018-09-19T07:49:32.961Z,5.10
2018-09-19T07:50:11.591Z,5.13
2018-09-19T07:50:50.763Z,5.50
2018-09-19T07:51:28.718Z,5.87
2018-09-19T07:52:06.749Z,4.97
2018-09-19T07:52:44.680Z,5.13
2018-09-19T07:53:22.826Z,4.90
2018-09-19T07:54:00.962Z,4.90
2018-09-19T07:54:39.027Z,5.30
2018-09-19T07:55:17.182Z,5.37
2018-09-19T07:55:55.970Z,5.67
2018-09-19T07:56:34.005Z,5.27
2018-09-19T07:57:12.004Z,4.87
2018-09-19T07:57:51.501Z,4.60
2018-09-19T07:58:29.653Z,4.53
2018-09-19T07:59:08.485Z,4.70
2018-09-19T07:59:46.625Z,5.03
2018-09-19T08:00:24.572Z,4.90
2018-09-19T08:01:02.715Z,5.30
2018-09-19T08:01:40.766Z,4.30
2018-09-19T08:02:19.352Z,4.80
2018-09-19T08:02:57.446Z,4.63
2018-09-19T08:03:35.490Z,5.00
2018-09-19T08:04:13.670Z,5.33
2018-09-19T08:04:51.602Z,4.97
2018-09-19T08:05:29.646Z,4.40
2018-09-19T08:06:07.597Z,4.90
2018-09-19T08:06:46.209Z,4.50
2018-09-19T08:07:25.120Z,5.00
2018-09-19T08:08:03.208Z,4.83
2018-09-19T08:08:41.337Z,4.33
2018-09-19T08:09:19.242Z,4.60
2018-09-19T08:09:58.406Z,4.50
2018-09-19T08:10:36.924Z,5.20
2018-09-19T08:11:16.500Z,5.03
2018-09-19T08:11:54.636Z,4.47
2018-09-19T08:12:32.520Z,4.97
2018-09-19T08:13:10.610Z,4.63
2018-09-19T08:13:48.582Z,5.40
2018-09-19T08:14:26.561Z,4.33
2018-09-19T08:15:05.280Z,4.53
2018-09-19T08:15:44.981Z,4.50
2018-09-19T08:16:22.868Z,5.00
2018-09-19T08:17:00.929Z,4.40
2018-09-19T08:17:40.984Z,4.63
2018-09-19T08:18:19.030Z,3.70
2018-09-19T08:18:56.998Z,5.37
2018-09-19T08:19:35.805Z,5.00
2018-09-19T08:20:14.822Z,4.47
2018-09-19T08:20:52.792Z,4.60
2018-09-19T08:21:30.746Z,6.47
2018-09-19T08:22:08.809Z,6.30
2018-09-19T08:22:47.127Z,6.00
2018-09-19T08:23:25.288Z,5.97
2018-09-19T08:24:04.536Z,6.03
2018-09-19T08:24:42.870Z,5.83
2018-09-19T08:25:20.945Z,6.20
2018-09-19T08:25:58.860Z,5.10
2018-09-19T08:26:36.834Z,5.40
2018-09-19T08:27:14.783Z,5.60
2018-09-19T08:27:52.860Z,5.43
2018-09-19T08:28:31.964Z,5.00
2018-09-19T08:29:09.913Z,5.07
2018-09-19T08:29:47.960Z,5.37